createdAt,value
2016-03-23T00:00:31.016Z,92.61
2016-03-23T00:01:31.065Z,92.61
2016-03-23T00:02:30.896Z,92.8
2016-03-23T00:03:31.070Z,92.61
2016-03-23T00:04:31.089Z,92.94
2016-03-23T00:05:31.106Z,92.85
2016-03-23T00:06:31.110Z,92.61
2016-03-23T00:07:31.144Z,92.9
2016-03-23T00:08:31.146Z,92.99
2016-03-23T00:09:31.180Z,92.85
2016-03-23T00:10:31.183Z,92.99
2016-03-23T00:11:31.186Z,93.04
2016-03-23T00:12:31.188Z,92.66
2016-03-23T00:13:31.269Z,92.56
2016-03-23T00:14:31.225Z,92.56
2016-03-23T00:15:31.243Z,92.56
2016-03-23T00:16:31.262Z,93.51
2016-03-23T00:17:31.280Z,93.41
2016-03-23T00:18:31.299Z,93.13
2016-03-23T00:19:31.301Z,93.32
2016-03-23T00:20:31.335Z,93.32
2016-03-23T00:21:31.338Z,93.41
2016-03-23T00:22:31.355Z,93.04
2016-03-23T00:23:31.375Z,92.85
2016-03-23T00:24:31.377Z,93.13
2016-03-23T00:25:31.396Z,93.13
2016-03-23T00:26:31.413Z,92.9
2016-03-23T00:27:31.416Z,93.23
2016-03-23T00:28:31.482Z,93.51
2016-03-23T00:29:31.453Z,93.37
2016-03-23T00:30:31.475Z,93.41
2016-03-23T00:31:31.493Z,93.32
2016-03-23T00:32:31.480Z,93.41
2016-03-23T00:33:31.513Z,93.23
2016-03-23T00:34:31.516Z,93.27
2016-03-23T00:35:31.550Z,93.51
2016-03-23T00:36:31.553Z,93.32
2016-03-23T00:37:31.571Z,93.23
2016-03-23T00:38:31.590Z,93.32
2016-03-23T00:39:31.623Z,93.41
2016-03-23T00:40:31.610Z,93.13
2016-03-23T00:41:31.629Z,93.08
2016-03-23T00:42:31.647Z,93.6
2016-03-23T00:43:31.650Z,93.41
2016-03-23T00:44:31.667Z,93.51
2016-03-23T00:45:31.702Z,93.41
2016-03-23T00:46:31.720Z,93.18
2016-03-23T00:47:31.707Z,93.41
2016-03-23T00:48:31.726Z,93.51
2016-03-23T00:49:31.744Z,93.89
2016-03-23T00:50:31.762Z,93.8
2016-03-23T00:51:31.765Z,94.18
2016-03-23T00:52:31.783Z,93.8
2016-03-23T00:53:31.802Z,93.99
2016-03-23T00:54:31.804Z,93.89
2016-03-23T00:55:31.808Z,94.08
2016-03-23T00:56:31.841Z,93.99
2016-03-23T00:57:31.859Z,93.99
2016-03-23T00:58:31.862Z,93.6
2016-03-23T00:59:31.880Z,93.75
2016-03-23T01:00:31.899Z,93.56
2016-03-23T01:01:31.917Z,93.99
2016-03-23T01:02:31.936Z,94.08
2016-03-23T01:03:31.954Z,94.18
2016-03-23T01:04:31.799Z,94.27
2016-03-23T01:05:31.974Z,94.18
2016-03-23T01:06:31.993Z,94.27
2016-03-23T01:07:31.854Z,94.27
2016-03-23T01:08:31.998Z,94.08
2016-03-23T01:09:32.031Z,94.08
2016-03-23T01:10:32.051Z,93.99
2016-03-23T01:11:32.068Z,93.89
2016-03-23T01:12:32.071Z,93.94
2016-03-23T01:13:32.090Z,93.99
2016-03-23T01:14:32.108Z,94.08
2016-03-23T01:15:32.111Z,94.27
2016-03-23T01:16:32.129Z,94.23
2016-03-23T01:17:32.132Z,94.03
2016-03-23T01:18:32.166Z,94.27
2016-03-23T01:19:32.183Z,94.37
2016-03-23T01:20:32.187Z,94.08
2016-03-23T01:21:32.205Z,94.37
2016-03-23T01:22:32.223Z,93.99
2016-03-23T01:23:32.258Z,94.18
2016-03-23T01:24:32.260Z,94.27
2016-03-23T01:25:32.263Z,94.27
2016-03-23T01:26:32.281Z,93.7
2016-03-23T01:27:32.300Z,93.51
2016-03-23T01:28:32.318Z,93.89
2016-03-23T01:29:32.320Z,93.8
2016-03-23T01:30:32.355Z,93.99
2016-03-23T01:31:32.341Z,93.94
2016-03-23T01:32:32.360Z,93.8
2016-03-23T01:33:32.378Z,93.89
2016-03-23T01:34:32.397Z,94.27
2016-03-23T01:35:32.415Z,93.8
2016-03-23T01:36:32.417Z,93.8
2016-03-23T01:37:32.435Z,94.08
2016-03-23T01:38:32.454Z,93.7
2016-03-23T01:39:32.473Z,94.27
2016-03-23T01:40:32.490Z,94.56
2016-03-23T01:41:32.493Z,93.99
2016-03-23T01:42:32.496Z,94.18
2016-03-23T01:43:32.514Z,94.37
2016-03-23T01:44:32.532Z,94.46
2016-03-23T01:45:32.551Z,93.99
2016-03-23T01:46:32.553Z,94.56
2016-03-23T01:47:32.587Z,94.37
2016-03-23T01:48:32.606Z,94.18
2016-03-23T01:49:32.608Z,94.08
2016-03-23T01:50:32.627Z,94.93
2016-03-23T01:51:32.661Z,94.37
2016-03-23T01:52:32.664Z,94.74
2016-03-23T01:53:32.666Z,94.84
2016-03-23T01:54:32.700Z,95.22
2016-03-23T01:55:32.703Z,95.12
2016-03-23T01:56:32.705Z,94.93
2016-03-23T01:57:32.724Z,94.84
2016-03-23T01:58:32.741Z,94.84
2016-03-23T01:59:32.761Z,94.98
2016-03-23T02:00:32.763Z,95.27
2016-03-23T02:01:32.781Z,95.55
2016-03-23T02:02:32.800Z,95.17
2016-03-23T02:03:32.818Z,95.6
2016-03-23T02:04:32.805Z,95.93
2016-03-23T02:05:32.839Z,95.84
2016-03-23T02:06:32.842Z,95.74
2016-03-23T02:07:32.860Z,95.74
2016-03-23T02:08:35.557Z,95.74
2016-03-23T02:09:32.917Z,95.93
2016-03-23T02:10:32.910Z,95.93
2016-03-23T02:11:39.875Z,96.5
2016-03-23T02:12:33.004Z,96.31
2016-03-23T02:13:33.037Z,96.31
2016-03-23T02:14:32.993Z,95.93
2016-03-23T02:15:32.995Z,96.12
2016-03-23T02:16:32.998Z,96.31
2016-03-23T02:17:33.017Z,96.22
2016-03-23T02:18:33.035Z,96.22
2016-03-23T02:19:33.038Z,96.59
2016-03-23T02:20:33.046Z,97.07
2016-03-23T02:21:33.065Z,96.69
2016-03-23T02:22:33.067Z,96.41
2016-03-23T02:23:33.086Z,96.22
2016-03-23T02:24:33.088Z,96.88
2016-03-23T02:25:33.123Z,96.5
2016-03-23T02:26:33.125Z,96.41
2016-03-23T02:27:33.158Z,96.97
2016-03-23T02:28:33.146Z,97.07
2016-03-23T02:29:33.180Z,96.78
2016-03-23T02:30:33.166Z,96.88
2016-03-23T02:31:33.201Z,96.78
2016-03-23T02:32:33.203Z,96.78
2016-03-23T02:33:33.238Z,96.78
2016-03-23T02:34:33.240Z,96.78
2016-03-23T02:35:33.258Z,96.78
2016-03-23T02:36:33.277Z,96.22
2016-03-23T02:37:33.295Z,95.93
2016-03-23T02:38:33.298Z,96.31
2016-03-23T02:39:33.300Z,96.31
2016-03-23T02:40:33.335Z,95.93
2016-03-23T02:41:33.337Z,96.03
2016-03-23T02:42:33.371Z,95.74
2016-03-23T02:43:33.374Z,95.84
2016-03-23T02:44:33.376Z,95.84
2016-03-23T02:45:33.395Z,95.65
2016-03-23T02:46:33.397Z,95.74
2016-03-23T02:47:33.416Z,95.74
2016-03-23T02:48:33.434Z,95.55
2016-03-23T02:49:33.453Z,95.55
2016-03-23T02:50:33.455Z,95.55
2016-03-23T02:51:33.473Z,95.65
2016-03-23T02:52:33.492Z,95.93
2016-03-23T02:53:33.509Z,95.84
2016-03-23T02:54:33.513Z,95.93
2016-03-23T02:55:33.531Z,96.12
2016-03-23T02:56:33.534Z,95.55
2016-03-23T02:57:33.568Z,95.93
2016-03-23T02:58:33.570Z,95.65
2016-03-23T02:59:33.589Z,95.93
2016-03-23T03:00:33.607Z,95.74
2016-03-23T03:01:33.672Z,95.74
2016-03-23T03:02:33.628Z,95.17
2016-03-23T03:03:33.646Z,95.55
2016-03-23T03:04:33.664Z,95.17
2016-03-23T03:05:33.667Z,95.36
2016-03-23T03:06:33.686Z,95.17
2016-03-23T03:07:33.704Z,95.46
2016-03-23T03:08:33.707Z,95.27
2016-03-23T03:09:33.725Z,95.84
2016-03-23T03:10:33.728Z,95.74
2016-03-23T03:11:33.762Z,95.93
2016-03-23T03:12:33.764Z,95.84
2016-03-23T03:13:33.782Z,95.93
2016-03-23T03:14:33.801Z,95.93
2016-03-23T03:15:33.818Z,95.36
2016-03-23T03:16:33.838Z,95.27
2016-03-23T03:17:33.856Z,95.27
2016-03-23T03:18:33.858Z,95.07
2016-03-23T03:19:33.876Z,95.27
2016-03-23T03:20:33.879Z,95.17
2016-03-23T03:21:33.898Z,95.27
2016-03-23T03:22:33.900Z,95.46
2016-03-23T03:23:33.934Z,95.46
2016-03-23T03:24:33.953Z,95.36
2016-03-23T03:25:33.955Z,95.55
2016-03-23T03:26:33.973Z,95.17
2016-03-23T03:27:33.976Z,94.89
2016-03-23T03:28:34.011Z,94.98
2016-03-23T03:29:34.013Z,94.79
2016-03-23T03:30:34.016Z,95.27
2016-03-23T03:31:34.019Z,94.98
2016-03-23T03:32:34.038Z,94.79
2016-03-23T03:33:34.072Z,95.07
2016-03-23T03:34:34.058Z,94.79
2016-03-23T03:35:34.092Z,94.79
2016-03-23T03:36:34.095Z,95.07
2016-03-23T03:37:34.114Z,94.89
2016-03-23T03:38:34.116Z,94.93
2016-03-23T03:39:34.166Z,95.07
2016-03-23T03:40:34.169Z,94.89
2016-03-23T03:41:34.171Z,94.89
2016-03-23T03:42:34.206Z,94.7
2016-03-23T03:43:34.224Z,94.89
2016-03-23T03:44:34.227Z,94.79
2016-03-23T03:45:34.229Z,94.7
2016-03-23T03:46:34.247Z,94.89
2016-03-23T03:47:34.266Z,94.89
2016-03-23T03:48:34.268Z,94.51
2016-03-23T03:49:34.286Z,94.89
2016-03-23T03:50:34.305Z,94.89
2016-03-23T03:51:34.307Z,95.07
2016-03-23T03:52:34.326Z,94.6
2016-03-23T03:53:34.344Z,94.98
2016-03-23T03:54:34.347Z,94.79
2016-03-23T03:55:34.365Z,94.79
2016-03-23T03:56:34.399Z,95.36
2016-03-23T03:57:34.402Z,95.55
2016-03-23T03:58:34.420Z,95.74
2016-03-23T03:59:34.438Z,94.98
2016-03-23T04:00:34.457Z,94.98
2016-03-23T04:01:34.475Z,95.07
2016-03-23T04:02:34.478Z,94.79
2016-03-23T04:03:34.496Z,95.46
2016-03-23T04:04:34.484Z,95.17
2016-03-23T04:05:34.517Z,95.17
2016-03-23T04:06:34.520Z,95.07
2016-03-23T04:07:34.538Z,94.7
2016-03-23T04:08:34.556Z,94.89
2016-03-23T04:09:34.559Z,94.7
2016-03-23T04:10:34.592Z,94.98
2016-03-23T04:11:34.596Z,95.17
2016-03-23T04:12:34.614Z,94.89
2016-03-23T04:13:34.633Z,95.17
2016-03-23T04:14:34.635Z,94.98
2016-03-23T04:15:34.653Z,94.98
2016-03-23T04:16:34.672Z,94.79
2016-03-23T04:17:34.690Z,94.79
2016-03-23T04:18:34.708Z,94.98
2016-03-23T04:19:34.741Z,94.6
2016-03-23T04:20:34.729Z,94.79
2016-03-23T04:21:34.779Z,94.7
2016-03-23T04:22:34.765Z,95.17
2016-03-23T04:23:34.768Z,94.79
2016-03-23T04:24:34.787Z,95.55
2016-03-23T04:25:34.789Z,95.65
2016-03-23T04:26:34.807Z,95.27
2016-03-23T04:27:34.826Z,94.98
2016-03-23T04:28:34.828Z,95.17
2016-03-23T04:29:34.847Z,95.36
2016-03-23T04:30:34.865Z,95.46
2016-03-23T04:31:34.868Z,94.79
2016-03-23T04:32:34.901Z,95.27
2016-03-23T04:33:34.920Z,94.7
2016-03-23T04:34:34.923Z,95.07
2016-03-23T04:35:34.941Z,95.07
2016-03-23T04:36:34.944Z,94.7
2016-03-23T04:37:34.962Z,95.17
2016-03-23T04:38:34.981Z,94.79
2016-03-23T04:39:34.983Z,94.42
2016-03-23T04:40:35.017Z,94.79
2016-03-23T04:41:35.020Z,94.79
2016-03-23T04:42:35.039Z,94.42
2016-03-23T04:43:35.041Z,94.23
2016-03-23T04:44:35.075Z,94.6
2016-03-23T04:45:35.078Z,94.89
2016-03-23T04:46:35.096Z,95.07
2016-03-23T04:47:35.114Z,95.17
2016-03-23T04:48:35.133Z,95.17
2016-03-23T04:49:35.136Z,94.51
2016-03-23T04:50:35.154Z,94.7
2016-03-23T04:51:35.171Z,94.79
2016-03-23T04:52:35.191Z,94.6
2016-03-23T04:53:35.193Z,95.17
2016-03-23T04:54:35.211Z,94.89
2016-03-23T04:55:35.230Z,94.98
2016-03-23T04:56:35.248Z,94.89
2016-03-23T04:57:35.251Z,94.7
2016-03-23T04:58:35.268Z,94.79
2016-03-23T04:59:35.288Z,94.79
2016-03-23T05:00:35.306Z,95.07
2016-03-23T05:01:35.309Z,94.6
2016-03-23T05:02:35.326Z,94.79
2016-03-23T05:03:35.329Z,94.89
2016-03-23T05:04:35.347Z,94.6
2016-03-23T05:05:35.366Z,94.98
2016-03-23T05:06:35.384Z,95.07
2016-03-23T05:07:35.387Z,94.7
2016-03-23T05:08:35.405Z,94.89
2016-03-23T05:09:35.423Z,95.07
2016-03-23T05:10:35.442Z,94.79
2016-03-23T05:11:35.460Z,94.13
2016-03-23T05:12:35.478Z,93.84
2016-03-23T05:13:35.480Z,94.51
2016-03-23T05:14:35.500Z,94.51
2016-03-23T05:15:35.514Z,94.51
2016-03-23T05:16:35.507Z,94.51
2016-03-23T05:17:35.515Z,94.7
2016-03-23T05:18:35.523Z,94.23
2016-03-23T05:19:35.531Z,94.51
2016-03-23T05:20:35.525Z,94.51
2016-03-23T05:21:35.540Z,94.42
2016-03-23T05:22:35.555Z,94.51
2016-03-23T05:23:35.554Z,93.84
2016-03-23T05:24:35.569Z,94.42
2016-03-23T05:25:35.585Z,94.23
2016-03-23T05:26:35.601Z,94.51
2016-03-23T05:27:35.602Z,94.51
2016-03-23T05:28:35.603Z,94.03
2016-03-23T05:29:35.636Z,94.51
2016-03-23T05:30:35.637Z,93.94
2016-03-23T05:31:35.655Z,94.51
2016-03-23T05:32:35.674Z,94.51
2016-03-23T05:36:35.730Z,94.23
2016-03-23T05:37:35.733Z,94.13
2016-03-23T05:38:35.735Z,94.7
2016-03-23T05:39:35.769Z,94.42
2016-03-23T05:40:35.772Z,94.03
2016-03-23T05:41:35.790Z,94.23
2016-03-23T05:42:35.793Z,94.6
2016-03-23T05:43:35.810Z,94.51
2016-03-23T05:44:36.126Z,94.13
2016-03-23T05:45:35.848Z,94.51
2016-03-23T05:46:35.851Z,94.42
2016-03-23T05:47:35.869Z,94.13
2016-03-23T05:48:35.887Z,94.13
2016-03-23T05:49:35.905Z,94.51
2016-03-23T05:50:35.907Z,94.89
2016-03-23T05:51:35.942Z,95.17
2016-03-23T05:52:35.945Z,94.98
2016-03-23T05:53:35.963Z,95.17
2016-03-23T05:54:35.981Z,94.98
2016-03-23T05:55:35.969Z,94.03
2016-03-23T05:56:36.003Z,94.42
2016-03-23T05:57:36.006Z,94.51
2016-03-23T05:58:36.024Z,94.32
2016-03-23T05:59:36.386Z,94.23
2016-03-23T06:00:36.060Z,94.79
2016-03-23T06:01:36.078Z,94.23
2016-03-23T06:02:36.097Z,94.7
2016-03-23T06:03:36.115Z,94.03
2016-03-23T06:04:36.102Z,94.42
2016-03-23T06:05:36.136Z,94.13
2016-03-23T06:06:36.143Z,94.32
2016-03-23T06:07:36.156Z,95.17
2016-03-23T06:08:36.163Z,94.79
2016-03-23T06:09:36.182Z,94.98
2016-03-23T06:10:36.185Z,95.46
2016-03-23T06:11:36.203Z,95.46
2016-03-23T06:12:36.221Z,95.36
2016-03-23T06:13:36.240Z,95.17
2016-03-23T06:14:36.367Z,95.55
2016-03-23T06:15:36.276Z,95.74
2016-03-23T06:16:36.278Z,95.65
2016-03-23T06:17:36.297Z,95.93
2016-03-23T06:18:36.315Z,95.74
2016-03-23T06:19:36.334Z,95.93
2016-03-23T06:20:36.337Z,95.74
2016-03-23T06:21:36.355Z,95.74
2016-03-23T06:22:36.358Z,95.27
2016-03-23T06:23:36.391Z,95.07
2016-03-23T06:24:36.394Z,94.7
2016-03-23T06:25:36.413Z,94.89
2016-03-23T06:26:36.431Z,94.98
2016-03-23T06:27:36.433Z,95.17
2016-03-23T06:28:36.452Z,94.89
2016-03-23T06:29:36.735Z,94.7
2016-03-23T06:30:36.472Z,94.13
2016-03-23T06:31:36.491Z,94.23
2016-03-23T06:32:36.510Z,94.03
2016-03-23T06:33:36.513Z,94.13
2016-03-23T06:34:36.530Z,94.42
2016-03-23T06:35:36.549Z,94.32
2016-03-23T06:36:36.551Z,94.7
2016-03-23T06:37:36.570Z,94.42
2016-03-23T06:38:36.588Z,94.51
2016-03-23T06:39:36.606Z,94.51
2016-03-23T06:40:36.624Z,94.32
2016-03-23T06:41:36.642Z,94.79
2016-03-23T06:42:36.661Z,94.23
2016-03-23T06:43:36.664Z,93.56
2016-03-23T06:44:36.698Z,93.94
2016-03-23T06:45:36.685Z,93.56
2016-03-23T06:46:36.719Z,93.94
2016-03-23T06:47:36.722Z,93.84
2016-03-23T06:48:36.739Z,93.94
2016-03-23T06:49:36.758Z,93.94
2016-03-23T06:50:36.776Z,94.03
2016-03-23T06:51:36.794Z,93.75
2016-03-23T06:52:36.781Z,93.75
2016-03-23T06:53:36.800Z,94.51
2016-03-23T06:54:36.819Z,94.23
2016-03-23T06:55:36.822Z,93.37
2016-03-23T06:56:36.840Z,93.13
2016-03-23T06:57:36.858Z,93.65
2016-03-23T06:58:36.861Z,93.65
2016-03-23T06:59:36.895Z,93.37
2016-03-23T07:00:36.913Z,92.66
2016-03-23T07:01:36.900Z,92.52
2016-03-23T07:02:36.934Z,92.94
2016-03-23T07:03:36.936Z,92.66
2016-03-23T07:04:36.955Z,91.8
2016-03-23T07:05:36.988Z,91.99
2016-03-23T07:06:36.991Z,92.14
2016-03-23T07:07:37.009Z,91.52
2016-03-23T07:08:37.013Z,92.33
2016-03-23T07:09:37.031Z,92.04
2016-03-23T07:10:37.034Z,92.04
2016-03-23T07:11:37.037Z,91.89
2016-03-23T07:12:37.070Z,92.28
2016-03-23T07:13:37.088Z,91.75
2016-03-23T07:14:36.965Z,91.8
2016-03-23T07:15:37.109Z,91.33
2016-03-23T07:16:37.128Z,91.04
2016-03-23T07:17:37.130Z,91.14
2016-03-23T07:18:37.148Z,90.85
2016-03-23T07:19:37.167Z,90.38
2016-03-23T07:20:37.185Z,90.66
2016-03-23T07:21:37.203Z,91.28
2016-03-23T07:22:37.222Z,90.85
2016-03-23T07:23:37.225Z,90.47
2016-03-23T07:24:37.243Z,90.19
2016-03-23T07:25:37.261Z,90
2016-03-23T07:26:37.264Z,90.43
2016-03-23T07:27:37.266Z,90.28
2016-03-23T07:28:37.285Z,90.47
2016-03-23T07:29:37.350Z,89.9
2016-03-23T07:30:37.322Z,90.62
2016-03-23T07:31:37.324Z,90.47
2016-03-23T07:32:37.343Z,90.66
2016-03-23T07:33:37.361Z,91.24
2016-03-23T07:34:37.394Z,91.52
2016-03-23T07:35:37.397Z,90.76
2016-03-23T07:36:37.416Z,90.38
2016-03-23T07:37:37.418Z,90.28
2016-03-23T07:38:37.437Z,90.28
2016-03-23T07:39:37.439Z,90.76
2016-03-23T07:40:37.457Z,90
2016-03-23T07:41:37.476Z,90.28
2016-03-23T07:42:37.494Z,90.09
2016-03-23T07:43:37.513Z,90
2016-03-23T07:44:37.515Z,90.66
2016-03-23T07:45:37.534Z,90.47
2016-03-23T07:46:37.552Z,89.72
2016-03-23T07:47:37.570Z,90
2016-03-23T07:48:37.573Z,89.86
2016-03-23T07:49:37.592Z,90.76
2016-03-23T07:50:37.594Z,90.24
2016-03-23T07:51:37.612Z,90.85
2016-03-23T07:52:37.646Z,90.19
2016-03-23T07:53:37.649Z,90.09
2016-03-23T07:54:37.652Z,90.19
2016-03-23T07:55:37.669Z,90.09
2016-03-23T07:56:37.689Z,90.47
2016-03-23T07:57:37.691Z,89.9
2016-03-23T07:58:37.709Z,89.33
2016-03-23T07:59:37.743Z,89.53
2016-03-23T08:00:37.730Z,89.9
2016-03-23T08:01:37.764Z,89.72
2016-03-23T08:02:37.783Z,90.19
2016-03-23T08:03:37.786Z,89.72
2016-03-23T08:04:37.804Z,90.09
2016-03-23T08:05:37.807Z,89.14
2016-03-23T08:06:37.824Z,88.95
2016-03-23T08:07:37.843Z,89.14
2016-03-23T08:08:37.846Z,88.95
2016-03-23T08:09:37.863Z,87.82
2016-03-23T08:10:37.882Z,88.05
2016-03-23T08:11:37.900Z,87.43
2016-03-23T08:12:37.903Z,87.53
2016-03-23T08:13:37.937Z,87.91
2016-03-23T08:14:37.940Z,87.82
2016-03-23T08:15:37.942Z,87.05
2016-03-23T08:16:37.961Z,87.01
2016-03-23T08:17:37.979Z,86.72
2016-03-23T08:18:37.997Z,87.91
2016-03-23T08:19:38.016Z,87.1
2016-03-23T08:20:38.018Z,87.19
2016-03-23T08:21:38.037Z,86.91
2016-03-23T08:22:38.055Z,86.68
2016-03-23T08:23:38.073Z,86.63
2016-03-23T08:24:38.092Z,86.96
2016-03-23T08:25:38.094Z,87.15
2016-03-23T08:26:38.128Z,87.53
2016-03-23T08:27:38.131Z,87.72
2016-03-23T08:28:38.149Z,88.29
2016-03-23T08:29:38.153Z,88.39
2016-03-23T08:30:38.170Z,88.29
2016-03-23T08:31:38.189Z,88.76
2016-03-23T08:32:38.207Z,87.82
2016-03-23T08:33:38.225Z,88.01
2016-03-23T08:34:38.228Z,87.72
2016-03-23T08:35:38.246Z,87.91
2016-03-23T08:36:38.249Z,87.62
2016-03-23T08:37:38.267Z,87.34
2016-03-23T08:38:38.286Z,87.15
2016-03-23T08:39:38.304Z,87.29
2016-03-23T08:40:38.322Z,87.15
2016-03-23T08:41:38.325Z,86.05
2016-03-23T08:42:38.343Z,86.72
2016-03-23T08:43:38.345Z,87.15
2016-03-23T08:44:38.380Z,86.96
2016-03-23T08:45:38.398Z,87.82
2016-03-23T08:46:38.417Z,86.3
2016-03-23T08:47:38.434Z,86.58
2016-03-23T08:48:38.437Z,87.34
2016-03-23T08:49:38.315Z,87.82
2016-03-23T08:50:38.473Z,87.82
2016-03-23T08:51:38.477Z,87.34
2016-03-23T08:52:38.495Z,86.77
2016-03-23T08:53:38.513Z,86.3
2016-03-23T08:54:38.516Z,86.39
2016-03-23T08:55:38.534Z,86.11
2016-03-23T08:56:38.553Z,86.01
2016-03-23T08:57:38.571Z,86.11
2016-03-23T08:58:38.589Z,86.39
2016-03-23T08:59:38.608Z,86.39
2016-03-23T09:00:38.610Z,86.11
2016-03-23T09:01:38.629Z,85.35
2016-03-23T09:02:38.631Z,84.97
2016-03-23T09:03:38.634Z,85.01
2016-03-23T09:04:38.668Z,84.97
2016-03-23T09:05:38.671Z,84.63
2016-03-23T09:06:38.689Z,83.39
2016-03-23T09:07:38.707Z,83.2
2016-03-23T09:08:38.710Z,82.64
2016-03-23T09:09:38.728Z,82.35
2016-03-23T09:10:38.747Z,82.54
2016-03-23T09:11:38.765Z,82.35
2016-03-23T09:12:38.783Z,81.97
2016-03-23T09:13:38.801Z,81.21
2016-03-23T09:14:38.804Z,81.21
2016-03-23T09:15:38.823Z,81.63
2016-03-23T09:16:38.841Z,80.58
2016-03-23T09:17:38.843Z,80.4
2016-03-23T09:18:38.862Z,80.02
2016-03-23T09:19:38.880Z,79.83
2016-03-23T09:20:38.898Z,79.92
2016-03-23T09:21:38.917Z,79.35
2016-03-23T09:22:38.934Z,78.88
2016-03-23T09:23:38.938Z,79.06
2016-03-23T09:24:38.956Z,78.88
2016-03-23T09:25:38.974Z,79.83
2016-03-23T09:26:38.992Z,78.69
2016-03-23T09:27:38.995Z,77.79
2016-03-23T09:28:39.030Z,77.12
2016-03-23T09:29:39.016Z,77.98
2016-03-23T09:30:39.050Z,78.55
2016-03-23T09:31:39.053Z,77.89
2016-03-23T09:32:39.086Z,78.08
2016-03-23T09:33:39.090Z,78.36
2016-03-23T09:34:39.108Z,79.22
2016-03-23T09:35:39.126Z,79.31
2016-03-23T09:36:39.144Z,79.5
2016-03-23T09:37:39.163Z,79.31
2016-03-23T09:38:39.166Z,79.79
2016-03-23T09:39:39.199Z,78.08
2016-03-23T09:40:39.187Z,78.08
2016-03-23T09:41:39.205Z,77.89
2016-03-23T09:42:39.223Z,77.79
2016-03-23T09:43:39.242Z,78.17
2016-03-23T09:44:39.244Z,78.02
2016-03-23T09:45:39.247Z,77.31
2016-03-23T09:46:39.297Z,76.08
2016-03-23T09:47:39.299Z,77.12
2016-03-23T09:48:39.302Z,77.6
2016-03-23T09:49:39.336Z,76.65
2016-03-23T09:50:39.338Z,76.65
2016-03-23T09:51:39.341Z,76.46
2016-03-23T09:52:39.375Z,76.31
2016-03-23T09:53:39.378Z,75.93
2016-03-23T09:54:39.381Z,75.93
2016-03-23T09:55:39.399Z,76.08
2016-03-23T09:56:39.433Z,75.36
2016-03-23T09:57:39.435Z,75.64
2016-03-23T09:58:39.454Z,75.55
2016-03-23T09:59:39.488Z,75.93
2016-03-23T10:00:39.490Z,75.45
2016-03-23T10:01:39.508Z,75.93
2016-03-23T10:02:39.511Z,75.17
2016-03-23T10:03:39.530Z,75.93
2016-03-23T10:04:39.548Z,74.88
2016-03-23T10:05:39.566Z,74.6
2016-03-23T10:06:39.569Z,74.88
2016-03-23T10:07:39.587Z,74.41
2016-03-23T10:08:39.606Z,74.69
2016-03-23T10:09:39.608Z,74.6
2016-03-23T10:10:39.627Z,74.22
2016-03-23T10:11:39.645Z,74.31
2016-03-23T10:12:39.663Z,74.51
2016-03-23T10:13:39.697Z,74.79
2016-03-23T10:14:39.699Z,74.6
2016-03-23T10:15:39.703Z,73.49
2016-03-23T10:16:39.737Z,73.3
2016-03-23T10:17:39.723Z,72.45
2016-03-23T10:18:39.758Z,72.55
2016-03-23T10:19:39.776Z,73.21
2016-03-23T10:20:39.795Z,72.07
2016-03-23T10:21:39.797Z,71.69
2016-03-23T10:22:39.815Z,71.5
2016-03-23T10:23:39.833Z,70.64
2016-03-23T10:24:39.852Z,71.59
2016-03-23T10:25:39.870Z,70.97
2016-03-23T10:26:39.903Z,70.87
2016-03-23T10:27:39.891Z,70.3
2016-03-23T10:28:39.909Z,70.49
2016-03-23T10:29:39.912Z,69.63
2016-03-23T10:30:39.946Z,70.49
2016-03-23T10:31:39.949Z,70.49
2016-03-23T10:32:39.967Z,70.39
2016-03-23T10:33:39.969Z,71.34
2016-03-23T10:34:40.004Z,72.39
2016-03-23T10:35:40.006Z,71.53
2016-03-23T10:36:40.024Z,71.44
2016-03-23T10:37:40.043Z,70.77
2016-03-23T10:38:40.061Z,71.34
2016-03-23T10:39:40.080Z,72.07
2016-03-23T10:40:40.098Z,73.21
2016-03-23T10:41:40.116Z,74.26
2016-03-23T10:42:40.135Z,74.07
2016-03-23T10:43:40.137Z,74.63
2016-03-23T10:44:40.156Z,75.68
2016-03-23T10:45:40.174Z,76.06
2016-03-23T10:46:40.177Z,75.21
2016-03-23T10:47:40.195Z,74.26
2016-03-23T10:48:40.213Z,74.22
2016-03-23T10:49:40.231Z,74.88
2016-03-23T10:50:40.234Z,76.12
2016-03-23T10:51:40.253Z,76.21
2016-03-23T10:52:40.286Z,75.55
2016-03-23T10:53:40.289Z,75.84
2016-03-23T10:54:40.323Z,76.12
2016-03-23T10:55:40.326Z,76.21
2016-03-23T10:56:40.344Z,76.69
2016-03-23T10:57:40.362Z,76.97
2016-03-23T10:58:40.381Z,77.45
2016-03-23T10:59:40.383Z,77.64
2016-03-23T11:00:40.391Z,77.92
2016-03-23T11:01:40.425Z,78.78
2016-03-23T11:02:40.428Z,79.73
2016-03-23T11:03:40.446Z,80.4
2016-03-23T11:04:40.480Z,80.74
2016-03-23T11:05:40.482Z,82.16
2016-03-23T11:06:40.501Z,82.64
2016-03-23T11:07:40.519Z,82.82
2016-03-23T11:08:40.522Z,83.87
2016-03-23T11:09:40.540Z,84.63
2016-03-23T11:10:40.558Z,84.25
2016-03-23T11:11:40.577Z,83.68
2016-03-23T11:12:40.579Z,84.97
2016-03-23T11:13:40.598Z,84.91
2016-03-23T11:14:40.600Z,85.58
2016-03-23T11:15:40.635Z,83.3
2016-03-23T11:16:40.637Z,83.49
2016-03-23T11:17:40.639Z,83.97
2016-03-23T11:18:40.674Z,84.44
2016-03-23T11:19:40.692Z,84.25
2016-03-23T11:20:40.695Z,84.67
2016-03-23T11:21:40.713Z,85.15
2016-03-23T11:22:40.731Z,84.48
2016-03-23T11:23:40.750Z,83.62
2016-03-23T11:24:40.752Z,85.15
2016-03-23T11:25:40.771Z,83.53
2016-03-23T11:26:40.789Z,82.77
2016-03-23T11:27:40.808Z,83.15
2016-03-23T11:28:40.826Z,84.48
2016-03-23T11:29:40.859Z,82.91
2016-03-23T11:30:40.847Z,84.52
2016-03-23T11:31:40.865Z,81.29
2016-03-23T11:32:40.868Z,81.44
2016-03-23T11:33:40.933Z,81.63
2016-03-23T11:34:40.904Z,83.44
2016-03-23T11:35:40.767Z,84.1
2016-03-23T11:36:40.941Z,82.77
2016-03-23T11:37:40.944Z,76.59
2016-03-23T11:38:40.962Z,76.78
2016-03-23T11:39:41.027Z,77.73
2016-03-23T11:40:40.998Z,75.99
2016-03-23T11:41:41.017Z,77.45
2016-03-23T11:42:41.019Z,76.59
2016-03-23T11:43:41.053Z,76.97
2016-03-23T11:44:41.056Z,77.73
2016-03-23T11:45:41.074Z,75.74
2016-03-23T11:46:41.109Z,74.31
2016-03-23T11:47:41.111Z,73.74
2016-03-23T11:48:41.114Z,74.6
2016-03-23T11:49:41.148Z,73.27
2016-03-23T11:50:41.150Z,73.3
2016-03-23T11:51:41.154Z,74.22
2016-03-23T11:52:41.171Z,73.78
2016-03-23T11:53:41.190Z,73.59
2016-03-23T11:54:41.223Z,74.44
2016-03-23T11:55:41.226Z,73.69
2016-03-23T11:56:41.245Z,73.3
2016-03-23T11:57:41.263Z,73.97
2016-03-23T11:58:41.281Z,74.54
2016-03-23T11:59:41.284Z,73.59
2016-03-23T12:00:41.505Z,73.3
2016-03-23T12:01:41.321Z,74.54
2016-03-23T12:02:41.323Z,75.21
2016-03-23T12:03:41.357Z,75.02
2016-03-23T12:04:41.375Z,74.73
2016-03-23T12:05:41.378Z,75.02
2016-03-23T12:06:41.397Z,76.16
2016-03-23T12:07:41.415Z,76.2
2016-03-23T12:08:41.433Z,74.48
2016-03-23T12:09:41.451Z,74.58
2016-03-23T12:10:41.469Z,76.01
2016-03-23T12:11:41.488Z,76.39
2016-03-23T12:12:41.475Z,76.86
2016-03-23T12:13:41.509Z,77.24
2016-03-23T12:14:41.512Z,77.53
2016-03-23T12:15:41.530Z,77.72
2016-03-23T12:16:41.565Z,76.01
2016-03-23T12:17:41.567Z,76.76
2016-03-23T12:18:41.585Z,77.01
2016-03-23T12:19:41.618Z,77.01
2016-03-23T12:20:41.622Z,77.97
2016-03-23T12:21:41.640Z,79.01
2016-03-23T12:22:41.643Z,79.86
2016-03-23T12:23:41.661Z,79.01
2016-03-23T12:24:41.679Z,78.53
2016-03-23T12:25:41.682Z,79.11
2016-03-23T12:26:41.700Z,78.16
2016-03-23T12:27:41.719Z,77.77
2016-03-23T12:28:41.753Z,78.44
2016-03-23T12:29:41.755Z,77.49
2016-03-23T12:30:41.883Z,77.49
2016-03-23T12:31:41.808Z,77.49
2016-03-23T12:32:41.825Z,77.77
2016-03-23T12:33:41.844Z,77.68
2016-03-23T12:34:41.847Z,77.97
2016-03-23T12:35:41.866Z,76.25
2016-03-23T12:36:41.868Z,75.26
2016-03-23T12:37:41.902Z,73.21
2016-03-23T12:38:41.905Z,71.69
2016-03-23T12:39:41.907Z,71.02
2016-03-23T12:40:41.941Z,70.45
2016-03-23T12:41:41.959Z,71.41
2016-03-23T12:42:41.993Z,71.59
2016-03-23T12:43:41.996Z,70.54
2016-03-23T12:44:41.982Z,69.12
2016-03-23T12:45:42.126Z,68.84
2016-03-23T12:46:42.051Z,68.36
2016-03-23T12:47:42.100Z,68.17
2016-03-23T12:48:42.103Z,67.32
2016-03-23T12:49:42.121Z,66.46
2016-03-23T12:50:42.123Z,67.6
2016-03-23T12:51:42.126Z,68.46
2016-03-23T12:52:42.130Z,68.36
2016-03-23T12:53:42.117Z,67.32
2016-03-23T12:54:42.151Z,66.59
2016-03-23T12:55:42.169Z,66.68
2016-03-23T12:56:42.172Z,66.97
2016-03-23T12:57:42.189Z,66.97
2016-03-23T12:58:42.223Z,65.73